createdAt,value
2023-03-15T00:03:53.976Z,24.87
2023-03-15T00:07:54.016Z,24.87
2023-03-15T00:11:54.036Z,24.86
2023-03-15T00:15:54.203Z,24.89
2023-03-15T00:19:54.086Z,24.87
2023-03-15T00:23:54.127Z,24.86
2023-03-15T00:27:54.121Z,24.86
2023-03-15T00:31:54.233Z,24.86
2023-03-15T00:35:54.286Z,24.85
2023-03-15T00:39:54.329Z,24.86
2023-03-15T00:43:54.413Z,24.85
2023-03-15T00:47:54.368Z,24.85
2023-03-15T00:51:54.426Z,24.83
2023-03-15T00:55:54.506Z,24.82
2023-03-15T00:59:54.570Z,24.82
2023-03-15T01:03:54.602Z,24.83
2023-03-15T01:07:54.578Z,24.83
2023-03-15T01:11:54.651Z,24.85
2023-03-15T01:15:54.821Z,24.83
2023-03-15T01:19:54.765Z,24.82
2023-03-15T01:23:54.824Z,24.83
2023-03-15T01:27:54.848Z,24.82
2023-03-15T01:31:54.949Z,24.82
2023-03-15T01:35:55.035Z,24.83
2023-03-15T01:39:55.031Z,24.80
2023-03-15T01:43:55.129Z,24.82
2023-03-15T01:47:55.148Z,24.80
2023-03-15T01:51:55.181Z,24.79
2023-03-15T01:55:55.259Z,24.80
2023-03-15T01:59:55.296Z,24.82
2023-03-15T02:03:55.374Z,24.79
2023-03-15T02:07:55.501Z,24.79
2023-03-15T02:11:55.533Z,24.82
2023-03-15T02:15:55.582Z,24.79
2023-03-15T02:19:55.672Z,24.79
2023-03-15T02:23:55.712Z,24.79
2023-03-15T02:27:55.773Z,24.79
2023-03-15T02:31:55.900Z,24.79
2023-03-15T02:35:55.931Z,24.80
2023-03-15T02:39:56.008Z,24.82
2023-03-15T02:43:56.070Z,24.80
2023-03-15T02:47:56.127Z,24.82
2023-03-15T02:51:56.203Z,24.80
2023-03-15T02:55:56.314Z,24.78
2023-03-15T02:59:56.374Z,24.80
2023-03-15T03:03:56.439Z,24.79
2023-03-15T03:07:56.546Z,24.76
2023-03-15T03:11:56.653Z,24.78
2023-03-15T03:15:56.701Z,24.79
2023-03-15T03:19:56.783Z,24.76
2023-03-15T03:23:56.835Z,24.76
2023-03-15T03:27:56.901Z,24.78
2023-03-15T03:31:57.026Z,24.75
2023-03-15T03:35:57.113Z,24.73
2023-03-15T03:39:57.258Z,24.76
2023-03-15T03:43:57.291Z,24.78
2023-03-15T03:47:57.436Z,24.75
2023-03-15T03:51:57.455Z,24.75
2023-03-15T03:55:57.507Z,24.76
2023-03-15T03:59:57.591Z,24.75
2023-03-15T04:03:57.691Z,24.76
2023-03-15T04:07:57.854Z,24.72
2023-03-15T04:11:57.829Z,24.76
2023-03-15T04:15:58.225Z,24.72
2023-03-15T04:19:58.033Z,24.75
2023-03-15T04:23:58.104Z,24.73
2023-03-15T04:27:58.173Z,24.73
2023-03-15T04:31:58.229Z,24.75
2023-03-15T04:35:58.373Z,24.75
2023-03-15T04:39:58.392Z,24.75
2023-03-15T04:43:58.503Z,24.72
2023-03-15T04:47:58.562Z,24.72
2023-03-15T04:51:58.644Z,24.72
2023-03-15T04:55:58.734Z,24.70
2023-03-15T04:59:58.815Z,24.70
2023-03-15T05:03:58.902Z,24.70
2023-03-15T05:07:59.040Z,24.70
2023-03-15T05:11:59.143Z,24.72
2023-03-15T05:15:59.324Z,24.69
2023-03-15T05:19:59.375Z,24.70
2023-03-15T05:23:59.518Z,24.70
2023-03-15T05:27:59.612Z,24.69
2023-03-15T05:31:59.740Z,24.70
2023-03-15T05:35:59.923Z,24.70
2023-03-15T05:39:59.946Z,24.70
2023-03-15T05:44:00.040Z,24.70
2023-03-15T05:48:00.161Z,24.70
2023-03-15T05:52:00.252Z,24.73
2023-03-15T05:56:00.410Z,24.76
2023-03-15T06:00:00.462Z,24.76
2023-03-15T06:04:00.624Z,24.78
2023-03-15T06:08:00.775Z,24.79
2023-03-15T06:12:00.761Z,24.82
2023-03-15T06:16:00.862Z,24.83
2023-03-15T06:20:00.955Z,24.86
2023-03-15T06:24:01.003Z,24.86
2023-03-15T06:28:01.046Z,24.91
2023-03-15T06:32:01.127Z,24.91
2023-03-15T06:36:01.581Z,24.89
2023-03-15T06:40:01.691Z,24.54
2023-03-15T06:44:01.527Z,24.27
2023-03-15T06:48:02.074Z,24.29
2023-03-15T06:52:02.140Z,24.49
2023-03-15T06:56:02.088Z,24.76
2023-03-15T07:00:02.108Z,24.93
2023-03-15T07:04:02.176Z,25.02
2023-03-15T07:08:02.601Z,25.07
2023-03-15T07:12:02.094Z,25.16
2023-03-15T07:16:02.159Z,25.23
2023-03-15T07:20:02.000Z,25.26
2023-03-15T07:24:01.982Z,25.24
2023-03-15T07:28:02.102Z,25.23
2023-03-15T07:32:01.937Z,25.24
2023-03-15T07:36:01.867Z,25.31
2023-03-15T07:40:02.091Z,25.33
2023-03-15T07:44:01.795Z,25.42
2023-03-15T07:48:02.087Z,25.52
2023-03-15T07:52:02.104Z,25.67
2023-03-15T07:56:01.667Z,25.70
2023-03-15T08:00:01.642Z,25.67
2023-03-15T08:04:02.101Z,25.64
2023-03-15T08:08:01.553Z,25.70
2023-03-15T08:12:01.513Z,25.71
2023-03-15T08:16:01.578Z,25.80
2023-03-15T08:20:01.421Z,25.84
2023-03-15T08:24:01.406Z,24.54
2023-03-15T08:28:01.610Z,23.27
2023-03-15T08:32:01.485Z,23.09
2023-03-15T08:36:01.543Z,23.30
2023-03-15T08:40:02.134Z,23.87
2023-03-15T08:44:02.140Z,24.32
2023-03-15T08:48:01.816Z,24.69
2023-03-15T08:52:02.021Z,24.90
2023-03-15T08:56:02.642Z,25.07
2023-03-15T09:00:02.334Z,25.19
2023-03-15T09:04:02.504Z,25.27
2023-03-15T09:08:03.112Z,25.34
2023-03-15T09:12:02.583Z,25.38
2023-03-15T09:16:02.653Z,25.44
2023-03-15T09:20:02.786Z,24.73
2023-03-15T09:24:02.927Z,24.54
2023-03-15T09:28:03.060Z,24.79
2023-03-15T09:32:03.035Z,25.03
2023-03-15T09:36:03.238Z,25.24
2023-03-15T09:40:02.956Z,25.38
2023-03-15T09:44:03.150Z,25.42
2023-03-15T09:48:03.129Z,25.47
2023-03-15T09:52:03.182Z,25.54
2023-03-15T09:56:02.840Z,25.74
2023-03-15T10:00:02.798Z,25.74
2023-03-15T10:04:03.187Z,25.81
2023-03-15T10:08:02.734Z,25.88
2023-03-15T10:12:03.204Z,25.88
2023-03-15T10:16:02.689Z,25.93
2023-03-15T10:20:02.627Z,25.98
2023-03-15T10:24:02.649Z,25.98
2023-03-15T10:28:02.546Z,26.05
2023-03-15T10:32:02.557Z,26.03
2023-03-15T10:36:11.387Z,26.12
2023-03-15T10:40:03.643Z,26.13
2023-03-15T10:44:02.669Z,26.21
2023-03-15T10:48:02.645Z,26.22
2023-03-15T10:52:02.294Z,25.85
2023-03-15T10:56:02.681Z,25.54
2023-03-15T11:00:02.382Z,25.60
2023-03-15T11:04:02.673Z,25.68
2023-03-15T11:08:02.314Z,25.81
2023-03-15T11:12:02.278Z,25.82
2023-03-15T11:16:02.276Z,25.85
2023-03-15T11:20:02.214Z,25.88
2023-03-15T11:24:02.193Z,25.98
2023-03-15T11:28:02.151Z,26.03
2023-03-15T11:32:02.247Z,26.05
2023-03-15T11:36:02.250Z,25.91
2023-03-15T11:40:11.218Z,25.88
2023-03-15T11:44:03.189Z,25.87
2023-03-15T11:48:01.962Z,25.91
2023-03-15T11:52:01.911Z,25.88
2023-03-15T11:56:02.191Z,25.89
2023-03-15T12:00:02.301Z,25.88
2023-03-15T12:04:02.418Z,25.88
2023-03-15T12:08:02.603Z,25.91
2023-03-15T12:12:02.667Z,25.89
2023-03-15T12:16:02.851Z,25.91
2023-03-15T12:20:03.021Z,25.92
2023-03-15T12:24:03.124Z,25.95
2023-03-15T12:28:03.707Z,25.92
2023-03-15T12:32:03.456Z,25.95
2023-03-15T12:36:03.746Z,25.95
2023-03-15T12:40:03.778Z,25.95
2023-03-15T12:44:03.903Z,25.99
2023-03-15T12:48:04.029Z,25.95
2023-03-15T12:52:04.212Z,25.98
2023-03-15T12:56:08.808Z,25.93
2023-03-15T13:00:04.319Z,25.93
2023-03-15T13:04:04.254Z,25.92
2023-03-15T13:08:04.252Z,25.98
2023-03-15T13:12:04.181Z,26.05
2023-03-15T13:16:04.235Z,26.09
2023-03-15T13:20:04.378Z,26.09
2023-03-15T13:24:04.462Z,26.08
2023-03-15T13:28:04.564Z,26.12
2023-03-15T13:32:04.658Z,26.19
2023-03-15T13:36:04.722Z,26.29
2023-03-15T13:40:04.759Z,26.36
2023-03-15T13:44:04.780Z,26.43
2023-03-15T13:48:04.821Z,26.53
2023-03-15T13:52:04.822Z,26.49
2023-03-15T13:56:04.829Z,26.46
2023-03-15T14:00:04.819Z,26.54
2023-03-15T14:04:04.856Z,26.53
2023-03-15T14:08:04.868Z,26.44
2023-03-15T14:12:04.928Z,26.49
2023-03-15T14:16:04.958Z,26.46
2023-03-15T14:20:04.903Z,26.43
2023-03-15T14:24:04.934Z,26.42
2023-03-15T14:28:04.982Z,26.36
2023-03-15T14:32:04.982Z,26.39
2023-03-15T14:36:05.065Z,26.38
2023-03-15T14:40:05.066Z,26.32
2023-03-15T14:44:05.107Z,26.33
2023-03-15T14:48:05.180Z,26.35
2023-03-15T14:52:05.219Z,26.30
2023-03-15T14:56:05.286Z,26.26
2023-03-15T15:00:05.340Z,26.22
2023-03-15T15:04:05.429Z,26.22
2023-03-15T15:08:05.507Z,26.19
2023-03-15T15:12:05.583Z,26.18
2023-03-15T15:16:05.709Z,26.18
2023-03-15T15:20:05.830Z,26.22
2023-03-15T15:24:05.933Z,26.23
2023-03-15T15:28:05.929Z,26.21
2023-03-15T15:32:06.113Z,26.28
2023-03-15T15:36:06.161Z,26.29
2023-03-15T15:40:06.115Z,26.26
2023-03-15T15:44:06.216Z,26.25
2023-03-15T15:48:06.294Z,26.22
2023-03-15T15:52:06.382Z,26.18
2023-03-15T15:56:06.453Z,26.16
2023-03-15T16:00:06.545Z,26.13
2023-03-15T16:04:06.665Z,26.09
2023-03-15T16:08:06.844Z,26.06
2023-03-15T16:12:06.946Z,26.01
2023-03-15T16:16:07.101Z,25.96
2023-03-15T16:20:07.234Z,25.93
2023-03-15T16:24:07.406Z,25.93
2023-03-15T16:28:07.528Z,25.91
2023-03-15T16:32:16.861Z,25.87
2023-03-15T16:36:08.703Z,25.85
2023-03-15T16:40:07.575Z,25.85
2023-03-15T16:44:07.532Z,25.81
2023-03-15T16:48:07.651Z,25.81
2023-03-15T16:52:07.817Z,25.78
2023-03-15T16:56:07.970Z,25.80
2023-03-15T17:00:08.181Z,25.77
2023-03-15T17:04:08.383Z,25.75
2023-03-15T17:08:08.514Z,25.74
2023-03-15T17:12:08.686Z,25.75
2023-03-15T17:16:08.907Z,25.72
2023-03-15T17:20:09.094Z,25.72
2023-03-15T17:24:09.238Z,25.68
2023-03-15T17:28:09.492Z,25.68
2023-03-15T17:32:09.748Z,25.68
2023-03-15T17:36:10.005Z,25.70
2023-03-15T17:40:10.118Z,25.67
2023-03-15T17:44:10.345Z,25.65
2023-03-15T17:48:10.366Z,25.64
2023-03-15T17:52:10.250Z,25.61
2023-03-15T17:56:10.279Z,25.61
2023-03-15T18:00:10.165Z,25.58
2023-03-15T18:04:10.157Z,25.57
2023-03-15T18:08:10.081Z,25.58
2023-03-15T18:12:10.088Z,25.57
2023-03-15T18:16:10.053Z,25.55
2023-03-15T18:20:09.987Z,25.54
2023-03-15T18:24:09.995Z,25.55
2023-03-15T18:28:09.966Z,25.55
2023-03-15T18:32:09.959Z,25.54
2023-03-15T18:36:10.000Z,25.51
2023-03-15T18:40:09.825Z,25.51
2023-03-15T18:44:09.773Z,25.50
2023-03-15T18:48:09.788Z,25.50
2023-03-15T18:52:09.709Z,25.47
2023-03-15T18:56:09.688Z,25.48
2023-03-15T19:00:09.627Z,25.45
2023-03-15T19:04:09.781Z,25.45
2023-03-15T19:08:09.699Z,25.47
2023-03-15T19:12:09.690Z,25.47
2023-03-15T19:16:09.624Z,25.47
2023-03-15T19:20:09.593Z,25.45
2023-03-15T19:24:09.620Z,25.45
2023-03-15T19:28:09.518Z,25.45
2023-03-15T19:32:09.517Z,25.44
2023-03-15T19:36:09.448Z,25.42
2023-03-15T19:40:09.406Z,25.41
2023-03-15T19:44:09.573Z,25.42
2023-03-15T19:48:09.538Z,25.41
2023-03-15T19:52:09.514Z,25.41
2023-03-15T19:56:09.437Z,25.40
2023-03-15T20:00:09.393Z,25.38
2023-03-15T20:04:09.471Z,25.40
2023-03-15T20:08:09.330Z,25.37
2023-03-15T20:12:09.299Z,25.37
2023-03-15T20:16:09.352Z,25.38
2023-03-15T20:20:09.213Z,25.37
2023-03-15T20:24:09.355Z,25.38
2023-03-15T20:28:09.277Z,25.34
2023-03-15T20:32:09.228Z,25.38
2023-03-15T20:36:09.256Z,25.36
2023-03-15T20:40:09.141Z,25.34
2023-03-15T20:44:09.107Z,25.33
2023-03-15T20:48:09.090Z,25.31
2023-03-15T20:52:09.067Z,25.29
2023-03-15T20:56:09.006Z,25.36
2023-03-15T21:00:08.988Z,25.33
2023-03-15T21:04:08.960Z,25.31
2023-03-15T21:08:08.980Z,25.30
2023-03-15T21:12:09.067Z,25.30
2023-03-15T21:16:09.251Z,25.30
2023-03-15T21:20:09.259Z,25.29
2023-03-15T21:24:09.378Z,25.30
2023-03-15T21:28:09.558Z,25.29
2023-03-15T21:32:09.570Z,25.27
2023-03-15T21:36:09.705Z,25.27
2023-03-15T21:40:09.840Z,25.27
2023-03-15T21:44:09.859Z,25.27
2023-03-15T21:48:10.042Z,25.26
2023-03-15T21:52:10.167Z,25.27
2023-03-15T21:56:10.356Z,25.24
2023-03-15T22:00:10.502Z,25.24
2023-03-15T22:04:10.580Z,25.24
2023-03-15T22:08:10.600Z,25.23
2023-03-15T22:12:10.687Z,25.23
2023-03-15T22:16:10.795Z,25.27
2023-03-15T22:20:10.917Z,25.23
2023-03-15T22:24:10.966Z,25.20
2023-03-15T22:28:11.015Z,25.20
2023-03-15T22:32:11.005Z,25.20
2023-03-15T22:36:10.979Z,25.20
2023-03-15T22:40:11.031Z,25.20
2023-03-15T22:44:10.991Z,25.23
2023-03-15T22:48:11.036Z,25.20
2023-03-15T22:52:11.042Z,25.20
2023-03-15T22:56:11.028Z,25.16
2023-03-15T23:00:11.056Z,25.17
2023-03-15T23:04:11.105Z,25.19
2023-03-15T23:08:11.105Z,25.17
2023-03-15T23:12:11.105Z,25.17
2023-03-15T23:16:11.215Z,25.17
2023-03-15T23:20:11.155Z,25.16
2023-03-15T23:24:11.205Z,25.16
2023-03-15T23:28:11.181Z,25.16
2023-03-15T23:32:11.212Z,25.13
2023-03-15T23:36:11.190Z,25.14
2023-03-15T23:40:11.167Z,25.14
2023-03-15T23:44:11.156Z,25.11
2023-03-15T23:48:11.153Z,25.13
2023-03-15T23:52:11.464Z,25.13
2023-03-15T23:56:11.165Z,25.13
